Time;durP1;ratioP1;P1;durP2;ratioP2;P2;SDS_P1;SDS_P2;PMS_P1;PMS_P2;Temp;Humidity;BMP_temperature;BMP_pressure;BME280_temperature;BME280_humidity;BME280_pressure;Samples;Min_cycle;Max_cycle;Signal;HPM_P1;HPM_P2
2021/12/19 00:09:00;;;;;;;49.70;20.63;;;3.10;99.90;;;;;;4955129;29;20150;-72
2021/12/19 00:11:26;;;;;;;46.38;21.27;;;3.10;99.90;;;;;;4955364;28;20035;-73
2021/12/19 00:13:53;;;;;;;43.10;21.90;;;3.20;99.90;;;;;;4955389;29;20069;-72
2021/12/19 00:16:20;;;;;;;42.05;18.17;;;3.20;99.90;;;;;;4955312;29;20023;-72
2021/12/19 00:18:47;;;;;;;34.22;15.18;;;3.20;99.90;;;;;;4955421;29;20030;-72
2021/12/19 00:21:17;;;;;;;36.47;16.65;;;3.20;99.90;;;;;;4955526;29;20102;-72
2021/12/19 00:23:45;;;;;;;36.92;17.98;;;3.20;99.90;;;;;;4955096;29;20023;-72
2021/12/19 00:26:12;;;;;;;50.00;23.27;;;3.20;99.90;;;;;;4955078;29;20055;-72
2021/12/19 00:28:38;;;;;;;71.65;28.45;;;3.20;99.90;;;;;;4955358;29;20035;-72
2021/12/19 00:31:05;;;;;;;47.20;21.55;;;3.20;99.90;;;;;;4955093;29;20023;-72
2021/12/19 00:33:31;;;;;;;41.85;21.13;;;3.20;99.90;;;;;;4955294;29;20027;-72
2021/12/19 00:35:58;;;;;;;43.00;20.95;;;3.20;99.90;;;;;;4955372;28;20106;-72
2021/12/19 00:38:24;;;;;;;35.78;18.35;;;3.20;99.90;;;;;;4958790;29;20172;-72
2021/12/19 00:40:50;;;;;;;39.92;18.70;;;3.20;99.90;;;;;;4958464;28;20407;-72
2021/12/19 00:43:31;;;;;;;42.47;19.45;;;3.20;99.90;;;;;;4958612;29;20400;-72
2021/12/19 00:46:04;;;;;;;32.63;16.05;;;3.20;99.90;;;;;;4958606;29;20058;-72
2021/12/19 00:48:30;;;;;;;46.80;21.77;;;3.20;99.90;;;;;;4958650;29;20035;-72
2021/12/19 00:50:56;;;;;;;36.30;17.05;;;3.20;99.90;;;;;;4958496;28;20035;-72
2021/12/19 00:53:21;;;;;;;41.53;19.13;;;3.20;99.90;;;;;;4958329;29;20069;-72
2021/12/19 00:55:48;;;;;;;39.10;17.50;;;3.20;99.90;;;;;;4958101;28;20027;-72
2021/12/19 00:58:13;;;;;;;33.10;16.83;;;3.20;99.90;;;;;;4958451;28;20024;-72
2021/12/19 01:00:39;;;;;;;34.97;15.02;;;3.20;99.90;;;;;;4958249;29;20023;-72
2021/12/19 01:03:05;;;;;;;34.97;16.30;;;3.20;99.90;;;;;;4958869;29;20023;-73
2021/12/19 01:05:35;;;;;;;33.55;15.20;;;3.20;99.90;;;;;;4958317;29;20031;-72
2021/12/19 01:08:01;;;;;;;34.22;15.60;;;3.20;99.90;;;;;;4958559;28;20037;-72
2021/12/19 01:10:27;;;;;;;33.75;15.90;;;3.30;99.90;;;;;;4958352;29;20038;-72
2021/12/19 01:12:53;;;;;;;33.72;16.67;;;3.30;99.90;;;;;;4958468;28;20023;-72
2021/12/19 01:15:19;;;;;;;35.90;16.00;;;3.30;99.90;;;;;;4958269;29;20098;-72
2021/12/19 01:17:45;;;;;;;33.13;15.20;;;3.30;99.90;;;;;;4958292;29;20023;-72
2021/12/19 01:20:17;;;;;;;34.53;15.27;;;3.30;99.90;;;;;;4957493;29;20024;-74
2021/12/19 01:22:44;;;;;;;37.83;16.83;;;3.30;99.90;;;;;;4958152;29;20024;-72
2021/12/19 01:25:10;;;;;;;49.10;20.52;;;3.40;99.90;;;;;;4958243;28;20035;-72
2021/12/19 01:27:36;;;;;;;38.70;17.80;;;3.30;99.90;;;;;;4957881;29;20027;-72
2021/12/19 01:30:03;;;;;;;36.92;16.95;;;3.40;99.90;;;;;;4957795;29;20062;-72
2021/12/19 01:32:29;;;;;;;43.80;19.17;;;3.40;99.90;;;;;;4958029;29;20031;-72
2021/12/19 01:34:54;;;;;;;60.10;24.67;;;3.40;99.90;;;;;;4958053;29;20027;-72
2021/12/19 01:37:20;;;;;;;42.85;19.77;;;3.40;99.90;;;;;;4957881;29;20103;-72
2021/12/19 01:39:46;;;;;;;53.05;21.75;;;3.40;99.90;;;;;;4957477;29;20062;-72
2021/12/19 01:42:12;;;;;;;46.08;19.15;;;3.30;99.90;;;;;;4958103;28;20066;-72
2021/12/19 01:44:38;;;;;;;39.95;17.92;;;3.30;99.90;;;;;;4957736;29;20085;-72
2021/12/19 01:47:05;;;;;;;55.53;23.10;;;3.40;99.90;;;;;;4957394;28;20021;-72
2021/12/19 01:49:31;;;;;;;66.43;25.95;;;3.40;99.90;;;;;;4957491;29;20039;-72
2021/12/19 01:51:58;;;;;;;81.65;34.10;;;3.40;99.90;;;;;;4957811;28;20027;-72
2021/12/19 01:54:23;;;;;;;70.07;32.13;;;3.40;99.90;;;;;;4957446;28;20027;-72
2021/12/19 01:56:49;;;;;;;108.88;45.65;;;3.40;99.90;;;;;;4957293;29;20031;-72
2021/12/19 01:59:15;;;;;;;121.20;50.50;;;3.40;99.90;;;;;;4957481;29;20058;-72
2021/12/19 02:01:52;;;;;;;115.13;49.80;;;3.40;99.90;;;;;;4957027;28;20028;-72
2021/12/19 02:04:21;;;;;;;99.85;42.97;;;3.40;99.90;;;;;;4957437;29;20536;-72
2021/12/19 02:06:47;;;;;;;175.75;67.40;;;3.40;99.90;;;;;;4957679;29;20415;-72
2021/12/19 02:09:13;;;;;;;135.68;52.92;;;3.40;99.90;;;;;;4957224;28;20041;-72
2021/12/19 02:11:41;;;;;;;59.30;25.90;;;3.40;99.90;;;;;;4957238;29;20165;-72
2021/12/19 02:14:09;;;;;;;64.43;29.20;;;3.40;99.90;;;;;;4957042;28;20034;-72
2021/12/19 02:16:36;;;;;;;71.03;34.83;;;3.40;99.90;;;;;;4957073;29;20026;-72
2021/12/19 02:19:04;;;;;;;45.10;22.60;;;3.40;99.90;;;;;;4956872;29;20054;-72
2021/12/19 02:21:30;;;;;;;56.78;24.55;;;3.40;99.90;;;;;;4957002;28;20443;-72
2021/12/19 02:24:01;;;;;;;53.85;24.88;;;3.50;99.90;;;;;;4956837;28;20039;-72
2021/12/19 02:26:27;;;;;;;44.67;21.27;;;3.50;99.90;;;;;;4957243;29;20027;-72
2021/12/19 02:28:53;;;;;;;51.35;21.80;;;3.50;99.90;;;;;;4956729;28;20023;-72
2021/12/19 02:31:20;;;;;;;49.00;25.30;;;3.50;99.90;;;;;;4956863;29;20042;-72
2021/12/19 02:34:00;;;;;;;50.58;24.63;;;3.50;99.90;;;;;;4956857;28;20046;-72
2021/12/19 02:36:56;;;;;;;47.92;23.20;;;3.50;99.90;;;;;;4956491;29;20041;-72
2021/12/19 02:50:20;;;;;;;45.70;23.38;;;3.70;99.90;;;;;;4956527;29;20042;-72
2021/12/19 02:52:47;;;;;;;37.40;18.40;;;3.60;99.90;;;;;;4956196;28;20029;-72
2021/12/19 02:55:16;;;;;;;30.98;15.43;;;3.60;99.90;;;;;;4956290;28;20367;-72
2021/12/19 02:57:42;;;;;;;33.80;17.45;;;3.60;99.90;;;;;;4956281;29;20114;-72
2021/12/19 03:00:11;;;;;;;35.38;16.45;;;3.70;99.90;;;;;;4955734;28;20066;-72
2021/12/19 03:02:37;;;;;;;37.22;17.92;;;3.70;99.90;;;;;;4956391;28;20019;-72
2021/12/19 03:05:04;;;;;;;38.22;19.27;;;3.70;99.90;;;;;;4955943;28;20046;-72
2021/12/19 03:07:30;;;;;;;36.33;17.73;;;3.70;99.90;;;;;;4955659;28;20027;-72
2021/12/19 03:18:10;;;;;;;30.30;14.77;;;3.70;99.90;;;;;;4956217;29;20038;-72
2021/12/19 03:20:38;;;;;;;29.63;14.13;;;3.70;99.90;;;;;;4956150;29;20019;-72
2021/12/19 03:23:07;;;;;;;34.08;17.17;;;3.70;99.90;;;;;;4956104;29;20051;-72
2021/12/19 03:25:34;;;;;;;38.40;18.45;;;3.70;99.90;;;;;;4955894;29;20019;-72
2021/12/19 03:28:02;;;;;;;36.85;18.88;;;3.70;99.90;;;;;;4955890;29;20112;-72
2021/12/19 03:30:29;;;;;;;31.15;13.98;;;3.70;99.90;;;;;;4955888;29;20034;-72
2021/12/19 03:32:55;;;;;;;29.90;15.63;;;3.80;99.90;;;;;;4955518;29;20137;-72
2021/12/19 03:35:23;;;;;;;33.03;17.48;;;3.80;99.90;;;;;;4955810;28;20114;-72
2021/12/19 03:37:51;;;;;;;27.23;14.68;;;3.80;99.90;;;;;;4955933;29;20180;-72
2021/12/19 03:40:35;;;;;;;36.78;14.43;;;3.80;99.90;;;;;;4955558;28;20515;-72
2021/12/19 03:43:09;;;;;;;31.77;14.38;;;3.80;99.90;;;;;;4955562;29;20074;-72
2021/12/19 03:45:36;;;;;;;26.17;13.90;;;3.90;99.90;;;;;;4955683;29;20084;-72
2021/12/19 03:48:04;;;;;;;27.45;13.80;;;3.80;99.90;;;;;;4955859;29;20047;-72
2021/12/19 03:50:33;;;;;;;33.60;15.15;;;3.90;99.90;;;;;;4955911;29;20078;-72
2021/12/19 03:53:00;;;;;;;30.30;14.02;;;3.90;99.90;;;;;;4955228;29;20069;-72
2021/12/19 03:55:27;;;;;;;37.33;15.93;;;3.90;99.90;;;;;;4955330;28;20419;-72
2021/12/19 03:57:55;;;;;;;30.70;14.48;;;3.90;99.90;;;;;;4955483;29;20139;-72
2021/12/19 04:00:24;;;;;;;33.58;15.43;;;3.90;99.90;;;;;;4955174;28;20023;-72
2021/12/19 04:02:56;;;;;;;31.67;15.77;;;3.90;99.90;;;;;;4955595;29;20027;-72
2021/12/19 04:05:22;;;;;;;35.15;17.63;;;3.90;99.90;;;;;;4955401;29;20019;-72
2021/12/19 04:07:49;;;;;;;36.00;17.15;;;4.00;99.90;;;;;;4955091;28;20034;-72
2021/12/19 04:10:15;;;;;;;48.30;22.40;;;4.00;99.90;;;;;;4955690;28;20023;-71
2021/12/19 04:12:43;;;;;;;54.00;23.05;;;4.00;99.90;;;;;;4959514;29;20065;-72
2021/12/19 04:15:12;;;;;;;58.38;26.48;;;4.00;99.90;;;;;;4959249;29;20529;-72
2021/12/19 04:17:39;;;;;;;56.53;26.70;;;4.00;99.90;;;;;;4959577;29;20027;-72
2021/12/19 04:20:05;;;;;;;65.80;31.02;;;4.10;99.90;;;;;;4959457;28;20046;-72
2021/12/19 04:22:31;;;;;;;53.00;27.60;;;4.10;99.90;;;;;;4958901;29;20486;-71
2021/12/19 04:24:57;;;;;;;40.97;21.85;;;4.10;99.90;;;;;;4959244;28;20091;-72
2021/12/19 04:27:24;;;;;;;45.30;22.35;;;4.10;99.90;;;;;;4958786;29;20415;-72
2021/12/19 04:29:52;;;;;;;48.50;22.38;;;4.10;99.90;;;;;;4959080;29;20039;-71
2021/12/19 04:32:18;;;;;;;30.67;15.55;;;4.10;99.90;;;;;;4958744;29;20031;-72
2021/12/19 04:34:44;;;;;;;32.03;17.15;;;4.10;99.90;;;;;;4958907;28;20118;-72
2021/12/19 04:38:07;;;;;;;31.80;17.05;;;4.10;99.90;;;;;;4958835;29;20078;-72
2021/12/19 04:40:12;;;;;;;27.50;15.35;;;4.10;99.90;;;;;;4958186;28;20032;-72
2021/12/19 04:58:17;;;;;;;34.80;15.10;;;4.30;99.90;;;;;;4958800;29;20023;-72
2021/12/19 05:06:33;;;;;;;30.60;17.15;;;4.30;99.90;;;;;;4958503;28;20362;-72
2021/12/19 05:14:33;;;;;;;44.50;21.80;;;4.30;99.90;;;;;;4958357;29;20122;-72
2021/12/19 05:17:05;;;;;;;40.17;19.88;;;4.30;99.90;;;;;;4958143;29;20382;-73
2021/12/19 05:19:44;;;;;;;;;;;4.30;99.90;;;;;;4958726;29;20034;-72
2021/12/19 05:22:10;;;;;;;40.90;19.70;;;4.30;99.90;;;;;;4957800;28;19902;-72
2021/12/19 05:27:07;;;;;;;54.22;24.58;;;4.30;99.90;;;;;;4958108;29;20533;-72
2021/12/19 05:29:34;;;;;;;40.42;19.90;;;4.30;99.90;;;;;;4957984;29;20030;-72
2021/12/19 05:32:00;;;;;;;48.03;22.30;;;4.30;99.90;;;;;;4957587;28;20374;-72
2021/12/19 05:34:28;;;;;;;45.35;22.90;;;4.30;99.90;;;;;;4958248;28;20098;-72
2021/12/19 05:45:13;;;;;;;41.72;20.85;;;4.30;99.90;;;;;;4957843;29;20078;-72
2021/12/19 05:47:48;;;;;;;45.55;22.02;;;4.30;99.90;;;;;;4957648;29;20023;-72
2021/12/19 05:50:16;;;;;;;36.10;20.02;;;4.30;99.90;;;;;;4957710;29;20035;-72
2021/12/19 05:52:42;;;;;;;32.35;18.35;;;4.30;99.90;;;;;;4957537;28;20038;-72
2021/12/19 05:55:09;;;;;;;36.45;17.08;;;4.30;99.90;;;;;;4957290;29;20451;-72
2021/12/19 05:57:35;;;;;;;30.50;16.23;;;4.30;99.90;;;;;;4957649;28;20019;-72
2021/12/19 06:00:08;;;;;;;35.40;16.98;;;4.30;99.90;;;;;;4957420;28;20095;-72
2021/12/19 06:02:35;;;;;;;42.63;20.52;;;4.30;99.90;;;;;;4957401;29;20027;-72
2021/12/19 06:05:01;;;;;;;46.30;23.00;;;4.30;99.90;;;;;;4957336;29;20031;-72
2021/12/19 06:07:26;;;;;;;49.45;22.55;;;4.20;99.90;;;;;;4957232;29;20027;-72
2021/12/19 06:09:52;;;;;;;37.88;18.92;;;4.30;99.90;;;;;;4956993;29;20470;-72
2021/12/19 06:12:18;;;;;;;34.53;18.30;;;4.30;99.90;;;;;;4957544;29;20327;-72
2021/12/19 06:14:44;;;;;;;33.67;16.50;;;4.20;99.90;;;;;;4957292;28;20455;-72
2021/12/19 06:17:09;;;;;;;39.25;18.17;;;4.20;99.90;;;;;;4957287;28;20089;-72
2021/12/19 06:19:36;;;;;;;59.45;31.45;;;4.20;99.90;;;;;;4957299;29;20039;-72
2021/12/19 06:22:05;;;;;;;62.10;29.38;;;4.20;99.90;;;;;;4957216;28;20024;-72
2021/12/19 06:24:35;;;;;;;53.45;27.85;;;4.20;99.90;;;;;;4957047;28;20034;-72
2021/12/19 06:27:01;;;;;;;69.85;36.42;;;4.30;99.90;;;;;;4956873;28;20027;-72
2021/12/19 06:29:29;;;;;;;69.15;32.28;;;4.20;99.90;;;;;;4956884;29;20038;-72
2021/12/19 06:31:56;;;;;;;286.77;102.47;;;4.30;99.90;;;;;;4957121;29;20030;-72
2021/12/19 06:34:22;;;;;;;176.55;66.13;;;4.30;99.90;;;;;;4955754;28;20022;-72
2021/12/19 06:36:48;;;;;;;381.73;134.27;;;4.30;99.90;;;;;;4956619;29;20540;-72
2021/12/19 06:39:14;;;;;;;417.95;141.45;;;4.30;99.90;;;;;;4956550;29;20027;-72
2021/12/19 06:41:39;;;;;;;502.15;175.35;;;4.30;99.90;;;;;;4956493;29;20086;-72
2021/12/19 06:44:07;;;;;;;471.35;163.70;;;4.30;99.90;;;;;;4956662;29;20043;-72
2021/12/19 06:46:33;;;;;;;262.67;95.13;;;4.30;99.90;;;;;;4956739;28;20067;-72
2021/12/19 06:48:59;;;;;;;333.48;113.30;;;4.40;99.90;;;;;;4956389;28;20485;-72
2021/12/19 06:51:25;;;;;;;271.17;96.13;;;4.40;99.90;;;;;;4956497;29;20028;-72
2021/12/19 06:53:50;;;;;;;223.40;87.80;;;4.40;99.90;;;;;;4956401;28;20039;-72
2021/12/19 06:56:16;;;;;;;194.82;80.30;;;4.40;99.90;;;;;;4956033;29;20023;-72
2021/12/19 06:58:43;;;;;;;156.23;67.97;;;4.40;99.90;;;;;;4956391;29;20339;-72
2021/12/19 07:01:08;;;;;;;121.65;57.67;;;4.50;99.90;;;;;;4956322;28;20470;-72
2021/12/19 07:03:34;;;;;;;118.43;58.47;;;4.50;99.90;;;;;;4956186;29;20058;-71
2021/12/19 07:06:00;;;;;;;90.93;44.97;;;4.50;99.90;;;;;;4956326;29;20027;-72
2021/12/19 07:08:26;;;;;;;89.90;42.17;;;4.50;99.90;;;;;;4956116;29;20122;-72
2021/12/19 07:10:52;;;;;;;102.82;47.95;;;4.60;99.90;;;;;;4956092;29;20027;-72
2021/12/19 07:13:20;;;;;;;90.97;43.42;;;4.60;99.90;;;;;;4956130;28;20019;-72
2021/12/19 07:15:48;;;;;;;76.55;37.63;;;4.60;99.90;;;;;;4955936;29;20027;-72
2021/12/19 07:18:14;;;;;;;56.05;29.40;;;4.70;99.90;;;;;;4956000;29;20027;-72
2021/12/19 07:20:42;;;;;;;55.10;28.80;;;4.70;99.90;;;;;;4956416;29;20030;-72
2021/12/19 07:23:11;;;;;;;82.10;43.70;;;4.70;99.90;;;;;;4955883;29;20065;-72
2021/12/19 07:25:37;;;;;;;69.20;34.10;;;4.70;99.90;;;;;;4955716;29;20410;-72
2021/12/19 07:28:03;;;;;;;56.08;29.70;;;4.70;99.90;;;;;;4956007;28;20026;-72
2021/12/19 07:30:30;;;;;;;54.10;27.13;;;4.80;99.90;;;;;;4955841;29;20085;-72
2021/12/19 07:32:57;;;;;;;51.70;25.27;;;4.80;99.90;;;;;;4956147;29;20027;-72
2021/12/19 07:35:23;;;;;;;64.32;31.95;;;4.80;99.90;;;;;;4955732;28;20365;-73
2021/12/19 07:37:51;;;;;;;68.07;35.35;;;4.90;99.90;;;;;;4955400;29;20023;-73
2021/12/19 07:40:19;;;;;;;64.90;33.10;;;4.90;99.90;;;;;;4955287;29;20031;-72
2021/12/19 07:42:45;;;;;;;67.55;31.38;;;4.90;99.90;;;;;;4955926;29;20023;-73
2021/12/19 07:45:11;;;;;;;78.43;36.17;;;4.80;99.90;;;;;;4954399;28;20459;-72
2021/12/19 07:47:39;;;;;;;76.82;36.45;;;4.90;99.90;;;;;;4955042;29;20074;-73
2021/12/19 07:50:07;;;;;;;77.18;35.53;;;4.80;99.90;;;;;;4955395;28;20077;-73
2021/12/19 07:52:33;;;;;;;77.22;38.42;;;4.90;99.90;;;;;;4955174;28;20066;-72
2021/12/19 07:54:59;;;;;;;76.82;37.55;;;4.90;99.90;;;;;;4954918;29;20027;-73
2021/12/19 07:57:24;;;;;;;77.13;37.22;;;4.90;99.90;;;;;;4955031;29;20020;-73
2021/12/19 07:59:50;;;;;;;86.82;39.10;;;4.90;99.90;;;;;;4955012;29;20418;-73
2021/12/19 08:02:16;;;;;;;73.50;35.90;;;5.00;99.90;;;;;;4955130;28;20023;-71
2021/12/19 08:04:42;;;;;;;84.72;39.28;;;5.00;99.90;;;;;;4954744;28;20370;-72
2021/12/19 08:07:11;;;;;;;67.97;33.25;;;5.10;99.90;;;;;;4955288;28;20046;-71
2021/12/19 08:09:40;;;;;;;76.45;36.70;;;5.30;99.90;;;;;;4954707;29;20034;-72
2021/12/19 08:12:07;;;;;;;167.57;72.68;;;5.40;99.90;;;;;;4955001;28;20115;-72
2021/12/19 08:14:33;;;;;;;247.60;103.05;;;5.40;99.90;;;;;;4954672;29;20098;-72
2021/12/19 08:16:59;;;;;;;240.35;103.20;;;5.40;99.90;;;;;;4954717;28;20130;-71
2021/12/19 08:19:25;;;;;;;231.77;103.38;;;5.40;99.90;;;;;;4954865;29;20511;-71
2021/12/19 08:21:53;;;;;;;158.13;80.50;;;5.40;99.90;;;;;;4955026;28;20024;-71
2021/12/19 08:24:19;;;;;;;94.95;53.67;;;5.40;99.90;;;;;;4954920;29;20034;-72
2021/12/19 08:26:46;;;;;;;96.53;53.65;;;5.40;99.90;;;;;;4954515;29;20461;-72
2021/12/19 08:29:12;;;;;;;160.10;88.70;;;5.40;99.90;;;;;;4954536;28;20510;-72
2021/12/19 08:31:39;;;;;;;124.93;65.00;;;5.50;99.90;;;;;;4954872;29;20051;-71
2021/12/19 08:34:05;;;;;;;130.30;76.82;;;5.60;99.90;;;;;;4955062;28;20034;-72
2021/12/19 08:36:31;;;;;;;73.22;40.70;;;5.70;99.90;;;;;;4954876;29;20426;-72
2021/12/19 08:38:58;;;;;;;62.80;34.47;;;5.80;99.90;;;;;;4955327;28;20062;-72
2021/12/19 08:41:24;;;;;;;51.70;31.67;;;5.90;99.90;;;;;;4954754;29;20106;-72
2021/12/19 08:43:50;;;;;;;48.03;23.92;;;6.00;99.90;;;;;;4954584;29;20111;-70
2021/12/19 08:46:16;;;;;;;44.72;22.92;;;6.10;99.90;;;;;;4954899;29;20102;-73
2021/12/19 08:48:42;;;;;;;36.67;19.70;;;6.40;99.90;;;;;;4955198;28;20127;-71
2021/12/19 08:51:08;;;;;;;39.33;22.52;;;6.50;99.90;;;;;;4955088;29;20038;-71
2021/12/19 08:53:35;;;;;;;40.15;20.55;;;6.60;99.90;;;;;;4955059;29;20019;-70
2021/12/19 08:56:01;;;;;;;42.85;22.25;;;6.90;99.90;;;;;;4955263;29;20374;-71
2021/12/19 08:58:29;;;;;;;57.58;29.60;;;7.10;99.90;;;;;;4956696;28;20031;-70
2021/12/19 09:01:00;;;;;;;53.63;28.35;;;7.40;99.90;;;;;;4958558;29;20058;-72
2021/12/19 09:03:28;;;;;;;53.88;27.20;;;7.50;99.90;;;;;;4958577;29;20070;-72
2021/12/19 09:05:53;;;;;;;51.53;26.40;;;7.60;99.90;;;;;;4958406;28;20024;-71
2021/12/19 09:08:19;;;;;;;44.03;23.02;;;7.80;99.90;;;;;;4958297;29;20066;-72
2021/12/19 09:10:45;;;;;;;43.45;24.20;;;7.90;99.90;;;;;;4958388;29;20114;-70
2021/12/19 09:13:11;;;;;;;53.25;27.40;;;7.70;99.90;;;;;;4958213;29;20022;-70
2021/12/19 09:15:36;;;;;;;45.83;23.17;;;7.90;99.90;;;;;;4957971;29;20417;-71
2021/12/19 09:18:02;;;;;;;32.67;17.08;;;8.20;99.90;;;;;;4958030;29;20027;-70
2021/12/19 09:20:28;;;;;;;31.42;17.20;;;8.30;99.90;;;;;;4958363;28;20363;-70
2021/12/19 09:22:54;;;;;;;40.40;20.38;;;8.50;99.90;;;;;;4958140;28;20023;-71
2021/12/19 09:25:20;;;;;;;48.03;25.00;;;8.70;99.90;;;;;;4958121;28;20035;-71
2021/12/19 09:27:47;;;;;;;35.67;20.30;;;9.00;99.90;;;;;;4958067;28;20029;-71
2021/12/19 09:30:13;;;;;;;40.90;22.90;;;9.00;99.90;;;;;;4957223;29;20023;-70
2021/12/19 09:32:39;;;;;;;31.50;16.73;;;8.80;99.90;;;;;;4957858;28;20042;-70
2021/12/19 09:35:06;;;;;;;50.03;25.20;;;8.80;99.90;;;;;;4957732;29;20033;-70
2021/12/19 09:37:35;;;;;;;77.18;38.05;;;9.10;99.90;;;;;;4957508;29;20015;-70
2021/12/19 09:40:04;;;;;;;74.93;34.92;;;8.50;99.90;;;;;;4957779;29;20027;-71
2021/12/19 09:42:34;;;;;;;164.07;67.20;;;8.20;99.90;;;;;;4957336;28;20408;-71
2021/12/19 09:45:02;;;;;;;67.78;30.23;;;8.10;99.90;;;;;;4957541;29;20422;-72
2021/12/19 09:47:29;;;;;;;54.97;25.63;;;8.20;99.90;;;;;;4957685;29;20019;-71
2021/12/19 09:49:57;;;;;;;77.68;34.03;;;8.70;99.90;;;;;;4957173;28;20399;-71
2021/12/19 09:52:23;;;;;;;64.68;27.50;;;8.50;99.90;;;;;;4957299;29;20027;-71
2021/12/19 09:54:49;;;;;;;55.15;27.55;;;9.50;99.90;;;;;;4957824;28;20463;-71
2021/12/19 09:57:15;;;;;;;54.72;22.70;;;9.40;99.90;;;;;;4957484;29;20042;-70
2021/12/19 09:59:43;;;;;;;39.97;19.50;;;9.50;99.90;;;;;;4957548;29;20418;-71
2021/12/19 10:02:09;;;;;;;48.58;21.55;;;10.30;99.90;;;;;;4957183;28;20351;-72
2021/12/19 10:04:40;;;;;;;51.20;26.13;;;10.40;99.90;;;;;;4957371;29;20030;-71
2021/12/19 10:07:12;;;;;;;51.67;25.48;;;10.70;99.90;;;;;;4957366;28;20023;-71
2021/12/19 10:10:11;;;;;;;72.93;31.05;;;10.80;99.90;;;;;;4957053;28;20414;-71
2021/12/19 10:12:48;;;;;;;50.92;24.67;;;11.00;99.90;;;;;;4956934;29;20051;-72
2021/12/19 10:15:39;;;;;;;56.72;29.52;;;10.70;99.90;;;;;;4957199;29;20106;-71
2021/12/19 10:18:14;;;;;;;48.70;24.83;;;11.00;99.90;;;;;;4956760;29;20046;-71
2021/12/19 10:20:52;;;;;;;38.10;20.20;;;10.60;99.90;;;;;;4956431;29;20459;-71
2021/12/19 10:23:22;;;;;;;39.53;20.05;;;11.00;99.90;;;;;;4956903;29;20023;-71
2021/12/19 10:26:09;;;;;;;42.83;22.48;;;11.20;99.90;;;;;;4956996;29;20023;-71
2021/12/19 10:28:55;;;;;;;100.35;44.63;;;11.40;98.90;;;;;;4956754;28;20046;-71
2021/12/19 10:31:25;;;;;;;138.25;60.83;;;12.30;95.90;;;;;;4956451;29;20023;-71
2021/12/19 10:33:51;;;;;;;136.98;61.08;;;12.60;95.30;;;;;;4957028;28;20078;-71
2021/12/19 10:36:18;;;;;;;137.68;67.28;;;13.00;94.50;;;;;;4955373;29;20023;-72
2021/12/19 10:38:48;;;;;;;63.13;34.85;;;13.20;93.20;;;;;;4955106;28;20081;-69
2021/12/19 10:41:16;;;;;;;38.05;18.17;;;13.10;91.10;;;;;;4956362;29;20050;-69
2021/12/19 10:44:05;;;;;;;57.13;29.38;;;13.20;90.80;;;;;;4956695;29;20031;-70
2021/12/19 10:46:37;;;;;;;46.65;23.70;;;12.70;91.00;;;;;;4956315;29;20061;-71
2021/12/19 10:49:19;;;;;;;60.38;31.90;;;13.50;91.10;;;;;;4956548;29;20034;-71
2021/12/19 10:51:48;;;;;;;156.90;73.95;;;13.80;91.40;;;;;;4956728;29;20019;-70
2021/12/19 10:54:15;;;;;;;74.15;37.83;;;13.70;88.10;;;;;;4956425;29;20114;-71
2021/12/19 10:56:41;;;;;;;77.47;40.83;;;13.80;86.70;;;;;;4956438;29;20062;-71
2021/12/19 10:59:15;;;;;;;91.18;46.65;;;14.00;85.50;;;;;;4956726;29;20038;-71
2021/12/19 11:01:52;;;;;;;83.22;45.45;;;13.60;85.30;;;;;;4956351;29;20027;-70
2021/12/19 11:04:22;;;;;;;44.70;24.25;;;13.70;86.00;;;;;;4955476;29;20027;-70
2021/12/19 11:06:49;;;;;;;56.63;29.67;;;13.50;86.00;;;;;;4953907;29;20023;-71
2021/12/19 11:09:17;;;;;;;77.65;35.83;;;13.40;86.90;;;;;;4955551;29;20122;-71
2021/12/19 11:11:42;;;;;;;72.65;28.55;;;13.60;85.50;;;;;;4956546;29;20158;-70
2021/12/19 11:14:13;;;;;;;54.85;29.60;;;13.00;83.90;;;;;;4955929;29;20113;-71
2021/12/19 11:16:40;;;;;;;44.20;25.25;;;13.50;84.60;;;;;;4954827;28;20027;-71
2021/12/19 11:19:06;;;;;;;69.38;39.00;;;13.70;84.90;;;;;;4953950;29;20481;-71
2021/12/19 11:21:35;;;;;;;191.77;71.25;;;13.70;85.20;;;;;;4953306;28;20031;-71
2021/12/19 11:24:07;;;;;;;238.90;102.68;;;13.10;84.40;;;;;;4954672;29;20030;-70
2021/12/19 11:26:33;;;;;;;;;;;12.90;84.80;;;;;;4955976;29;20520;-71
2021/12/19 11:28:59;;;;;;;109.72;48.85;;;12.50;85.40;;;;;;4955157;28;19903;-71
2021/12/19 11:31:27;;;;;;;84.63;38.10;;;12.50;87.60;;;;;;4954954;29;20023;-71
2021/12/19 11:34:18;;;;;;;108.38;46.75;;;12.40;86.50;;;;;;4955024;28;20526;-71
2021/12/19 11:36:48;;;;;;;146.13;57.03;;;12.40;89.10;;;;;;4955433;29;20031;-71
2021/12/19 11:39:15;;;;;;;129.57;54.45;;;12.10;87.30;;;;;;4954729;29;20050;-71
2021/12/19 11:42:16;;;;;;;83.38;34.83;;;12.20;89.60;;;;;;4955062;29;20130;-70
2021/12/19 11:45:29;;;;;;;82.00;33.35;;;12.00;90.50;;;;;;4954931;29;20030;-71
2021/12/19 11:47:48;;;;;;;78.40;35.95;;;11.50;91.30;;;;;;4949459;29;20039;-71
2021/12/19 11:50:27;;;;;;;117.22;50.33;;;10.80;93.90;;;;;;4954908;29;20023;-70
2021/12/19 11:53:04;;;;;;;80.97;36.85;;;10.30;96.70;;;;;;4955168;29;20023;-71
2021/12/19 11:55:39;;;;;;;96.68;49.90;;;10.30;98.60;;;;;;4954562;29;20035;-71
2021/12/19 11:58:08;;;;;;;99.60;43.00;;;10.00;98.80;;;;;;4954870;28;20421;-71
2021/12/19 12:00:54;;;;;;;58.88;27.67;;;9.90;98.80;;;;;;4954723;28;20034;-70
2021/12/19 12:03:23;;;;;;;82.68;34.53;;;9.70;99.40;;;;;;4955362;29;20027;-71
2021/12/19 12:05:50;;;;;;;95.18;38.85;;;9.50;99.90;;;;;;4955583;29;20515;-71
2021/12/19 12:08:24;;;;;;;81.43;37.80;;;9.50;99.90;;;;;;4955618;29;20109;-71
2021/12/19 12:10:57;;;;;;;82.38;38.30;;;9.40;99.90;;;;;;4955433;29;20047;-70
2021/12/19 12:13:28;;;;;;;68.55;31.02;;;9.40;99.90;;;;;;4955205;29;20395;-71
2021/12/19 12:16:23;;;;;;;68.60;35.83;;;9.30;99.90;;;;;;4955418;29;20028;-72
2021/12/19 12:18:56;;;;;;;67.53;34.70;;;9.10;99.90;;;;;;4954758;29;20031;-73
2021/12/19 12:21:25;;;;;;;115.15;48.05;;;9.10;99.90;;;;;;4953959;28;20031;-72
2021/12/19 12:23:56;;;;;;;118.18;45.80;;;9.00;99.90;;;;;;4950800;28;20027;-72
2021/12/19 12:26:27;;;;;;;98.40;43.78;;;8.90;99.90;;;;;;4955188;29;20019;-71
2021/12/19 12:28:53;;;;;;;94.75;44.10;;;8.90;99.90;;;;;;4953565;28;20090;-72
2021/12/19 12:31:20;;;;;;;55.05;28.67;;;8.90;99.90;;;;;;4953427;28;20031;-71
2021/12/19 12:33:45;;;;;;;50.20;24.58;;;8.80;99.90;;;;;;4956386;28;20026;-71
2021/12/19 12:36:11;;;;;;;125.25;33.63;;;8.90;99.90;;;;;;4958887;29;20402;-71
2021/12/19 12:38:37;;;;;;;42.63;20.95;;;8.90;99.90;;;;;;4958249;28;20082;-71
2021/12/19 12:41:09;;;;;;;35.00;18.63;;;8.80;99.90;;;;;;4957981;29;20035;-71
2021/12/19 12:43:37;;;;;;;60.72;26.77;;;8.80;99.90;;;;;;4957354;29;20055;-72
2021/12/19 12:46:16;;;;;;;43.63;18.08;;;8.70;99.90;;;;;;4954181;28;20027;-70
2021/12/19 12:49:03;;;;;;;58.25;28.02;;;8.70;99.90;;;;;;4956761;29;20031;-71
2021/12/19 12:51:29;;;;;;;69.30;29.33;;;8.70;99.90;;;;;;4956286;29;20106;-71
2021/12/19 12:54:11;;;;;;;103.75;41.03;;;8.60;99.90;;;;;;4957401;28;20115;-71
2021/12/19 12:56:45;;;;;;;61.90;28.23;;;8.60;99.90;;;;;;4958217;29;20061;-70
2021/12/19 12:59:12;;;;;;;85.85;37.58;;;8.60;99.90;;;;;;4956311;29;20525;-70
2021/12/19 13:01:51;;;;;;;56.47;29.17;;;8.60;99.90;;;;;;4957794;28;20078;-70
2021/12/19 13:04:25;;;;;;;83.40;37.35;;;8.60;99.90;;;;;;4956127;28;20046;-70
2021/12/19 13:06:55;;;;;;;125.68;49.63;;;8.60;99.90;;;;;;4957232;29;20034;-70
2021/12/19 13:09:30;;;;;;;67.18;31.05;;;8.60;99.90;;;;;;4957487;28;20054;-70
2021/12/19 13:12:12;;;;;;;118.55;48.05;;;8.60;99.90;;;;;;4957273;29;20089;-70
2021/12/19 13:14:59;;;;;;;66.05;28.77;;;8.60;99.90;;;;;;4958170;29;20027;-71
2021/12/19 13:17:31;;;;;;;158.95;64.07;;;8.50;99.90;;;;;;4958523;28;20023;-71
2021/12/19 13:19:58;;;;;;;79.53;36.15;;;8.50;99.90;;;;;;4957833;29;20517;-70
2021/12/19 13:22:37;;;;;;;61.72;28.02;;;8.50;99.90;;;;;;4958232;28;20027;-70
2021/12/19 13:25:11;;;;;;;131.05;45.90;;;8.50;99.90;;;;;;4957995;29;20050;-70
2021/12/19 13:27:43;;;;;;;167.35;53.28;;;8.50;99.90;;;;;;4958040;29;20447;-71
2021/12/19 13:30:24;;;;;;;155.38;50.65;;;8.50;99.90;;;;;;4958162;29;20450;-70
2021/12/19 13:33:08;;;;;;;138.55;51.45;;;8.40;99.90;;;;;;4958159;29;20066;-71
2021/12/19 13:35:43;;;;;;;139.68;51.38;;;8.40;99.90;;;;;;4957524;28;20438;-70
2021/12/19 13:38:19;;;;;;;154.50;56.67;;;8.40;99.90;;;;;;4957649;29;20492;-70
2021/12/19 13:40:57;;;;;;;177.82;64.97;;;8.40;99.90;;;;;;4957503;29;20047;-71
2021/12/19 13:43:25;;;;;;;50.25;23.70;;;8.30;99.90;;;;;;4957400;28;20461;-71
2021/12/19 13:45:56;;;;;;;59.95;24.50;;;8.30;99.90;;;;;;4957637;29;20030;-71
2021/12/19 13:48:29;;;;;;;34.75;17.25;;;8.40;99.90;;;;;;4957453;28;20027;-71